sensor_id;sensor_type;location;lat;lon;timestamp;P1;durP1;ratioP1;P2;durP2;ratioP2
52268;SDS011;38224;50.950;4.100;2022-11-12T00:00:16;31.60;;;21.57;;
52268;SDS011;38224;50.950;4.100;2022-11-12T00:02:41;29.40;;;20.15;;
52268;SDS011;38224;50.950;4.100;2022-11-12T00:05:07;29.80;;;20.03;;
52268;SDS011;38224;50.950;4.100;2022-11-12T00:07:32;29.52;;;19.65;;
52268;SDS011;38224;50.950;4.100;2022-11-12T00:09:57;32.30;;;20.20;;
52268;SDS011;38224;50.950;4.100;2022-11-12T00:12:23;27.92;;;19.27;;
52268;SDS011;38224;50.950;4.100;2022-11-12T00:14:48;23.47;;;17.33;;
52268;SDS011;38224;50.950;4.100;2022-11-12T00:17:13;28.30;;;18.87;;
52268;SDS011;38224;50.950;4.100;2022-11-12T00:19:38;27.43;;;19.43;;
52268;SDS011;38224;50.950;4.100;2022-11-12T00:22:03;27.77;;;18.97;;
52268;SDS011;38224;50.950;4.100;2022-11-12T00:24:29;29.83;;;18.90;;
52268;SDS011;38224;50.950;4.100;2022-11-12T00:26:54;27.00;;;18.50;;
52268;SDS011;38224;50.950;4.100;2022-11-12T00:29:19;29.80;;;19.70;;
52268;SDS011;38224;50.950;4.100;2022-11-12T00:31:45;28.17;;;19.73;;
52268;SDS011;38224;50.950;4.100;2022-11-12T00:34:10;25.77;;;19.07;;
52268;SDS011;38224;50.950;4.100;2022-11-12T00:36:35;30.53;;;19.30;;
52268;SDS011;38224;50.950;4.100;2022-11-12T00:39:00;30.63;;;19.63;;
52268;SDS011;38224;50.950;4.100;2022-11-12T00:41:26;27.95;;;19.08;;
52268;SDS011;38224;50.950;4.100;2022-11-12T00:43:51;28.73;;;19.00;;
52268;SDS011;38224;50.950;4.100;2022-11-12T00:46:16;29.23;;;18.83;;
52268;SDS011;38224;50.950;4.100;2022-11-12T00:48:41;24.90;;;18.33;;
52268;SDS011;38224;50.950;4.100;2022-11-12T00:51:07;27.90;;;18.83;;
52268;SDS011;38224;50.950;4.100;2022-11-12T00:53:33;28.77;;;17.85;;
52268;SDS011;38224;50.950;4.100;2022-11-12T00:55:59;25.70;;;18.40;;
52268;SDS011;38224;50.950;4.100;2022-11-12T00:58:24;27.67;;;18.35;;
52268;SDS011;38224;50.950;4.100;2022-11-12T01:00:49;26.33;;;17.93;;
52268;SDS011;38224;50.950;4.100;2022-11-12T01:03:15;31.60;;;17.33;;
52268;SDS011;38224;50.950;4.100;2022-11-12T01:05:40;26.13;;;17.10;;
52268;SDS011;38224;50.950;4.100;2022-11-12T01:08:05;24.07;;;17.17;;
52268;SDS011;38224;50.950;4.100;2022-11-12T01:10:30;22.20;;;16.17;;
52268;SDS011;38224;50.950;4.100;2022-11-12T01:12:55;23.60;;;15.75;;
52268;SDS011;38224;50.950;4.100;2022-11-12T01:15:21;19.40;;;15.20;;
52268;SDS011;38224;50.950;4.100;2022-11-12T01:17:46;26.13;;;17.38;;
52268;SDS011;38224;50.950;4.100;2022-11-12T01:20:11;24.77;;;17.20;;
52268;SDS011;38224;50.950;4.100;2022-11-12T01:22:36;25.30;;;18.27;;
52268;SDS011;38224;50.950;4.100;2022-11-12T01:25:02;25.17;;;17.13;;
52268;SDS011;38224;50.950;4.100;2022-11-12T01:27:27;25.48;;;15.55;;
52268;SDS011;38224;50.950;4.100;2022-11-12T01:29:52;20.93;;;15.70;;
52268;SDS011;38224;50.950;4.100;2022-11-12T01:32:17;21.20;;;14.23;;
52268;SDS011;38224;50.950;4.100;2022-11-12T01:34:43;20.37;;;14.73;;
52268;SDS011;38224;50.950;4.100;2022-11-12T01:37:08;21.00;;;15.20;;
52268;SDS011;38224;50.950;4.100;2022-11-12T01:39:33;24.47;;;16.37;;
52268;SDS011;38224;50.950;4.100;2022-11-12T01:41:58;22.10;;;13.20;;
52268;SDS011;38224;50.950;4.100;2022-11-12T01:44:24;18.60;;;13.40;;
52268;SDS011;38224;50.950;4.100;2022-11-12T01:49:35;26.70;;;18.15;;
52268;SDS011;38224;50.950;4.100;2022-11-12T01:52:09;25.45;;;19.63;;
52268;SDS011;38224;50.950;4.100;2022-11-12T01:54:35;31.67;;;20.40;;
52268;SDS011;38224;50.950;4.100;2022-11-12T01:57:00;29.77;;;20.30;;
52268;SDS011;38224;50.950;4.100;2022-11-12T01:59:27;26.45;;;19.38;;
52268;SDS011;38224;50.950;4.100;2022-11-12T02:01:53;28.73;;;20.58;;
52268;SDS011;38224;50.950;4.100;2022-11-12T02:04:18;26.83;;;19.33;;
52268;SDS011;38224;50.950;4.100;2022-11-12T02:06:44;29.42;;;19.45;;
52268;SDS011;38224;50.950;4.100;2022-11-12T02:09:10;28.60;;;19.10;;
52268;SDS011;38224;50.950;4.100;2022-11-12T02:11:37;29.33;;;18.58;;
52268;SDS011;38224;50.950;4.100;2022-11-12T02:14:02;23.33;;;17.40;;
52268;SDS011;38224;50.950;4.100;2022-11-12T02:16:35;20.48;;;15.57;;
52268;SDS011;38224;50.950;4.100;2022-11-12T02:21:26;22.03;;;15.43;;
52268;SDS011;38224;50.950;4.100;2022-11-12T02:23:58;20.83;;;15.52;;
52268;SDS011;38224;50.950;4.100;2022-11-12T02:26:24;22.00;;;16.53;;
52268;SDS011;38224;50.950;4.100;2022-11-12T02:28:49;24.02;;;16.90;;
52268;SDS011;38224;50.950;4.100;2022-11-12T02:31:14;22.40;;;16.30;;
52268;SDS011;38224;50.950;4.100;2022-11-12T02:33:40;22.27;;;16.20;;
52268;SDS011;38224;50.950;4.100;2022-11-12T02:36:05;22.87;;;15.07;;
52268;SDS011;38224;50.950;4.100;2022-11-12T02:38:30;18.37;;;13.60;;
52268;SDS011;38224;50.950;4.100;2022-11-12T02:40:55;18.37;;;14.07;;
52268;SDS011;38224;50.950;4.100;2022-11-12T02:43:21;17.47;;;13.43;;
52268;SDS011;38224;50.950;4.100;2022-11-12T02:45:46;17.07;;;13.17;;
52268;SDS011;38224;50.950;4.100;2022-11-12T02:48:11;18.20;;;13.80;;
52268;SDS011;38224;50.950;4.100;2022-11-12T02:50:36;20.60;;;14.82;;
52268;SDS011;38224;50.950;4.100;2022-11-12T02:53:02;18.90;;;13.77;;
52268;SDS011;38224;50.950;4.100;2022-11-12T02:55:27;15.70;;;10.70;;
52268;SDS011;38224;50.950;4.100;2022-11-12T02:57:55;22.50;;;12.47;;
52268;SDS011;38224;50.950;4.100;2022-11-12T03:00:21;16.73;;;13.07;;
52268;SDS011;38224;50.950;4.100;2022-11-12T03:02:46;19.30;;;14.75;;
52268;SDS011;38224;50.950;4.100;2022-11-12T03:05:23;17.52;;;13.52;;
52268;SDS011;38224;50.950;4.100;2022-11-12T03:07:48;18.55;;;13.23;;
52268;SDS011;38224;50.950;4.100;2022-11-12T03:10:13;18.60;;;12.23;;
52268;SDS011;38224;50.950;4.100;2022-11-12T03:12:39;17.73;;;12.57;;
52268;SDS011;38224;50.950;4.100;2022-11-12T03:15:04;15.40;;;11.47;;
52268;SDS011;38224;50.950;4.100;2022-11-12T03:17:29;14.60;;;11.27;;
52268;SDS011;38224;50.950;4.100;2022-11-12T03:19:54;16.90;;;11.80;;
52268;SDS011;38224;50.950;4.100;2022-11-12T03:22:20;17.40;;;12.70;;
52268;SDS011;38224;50.950;4.100;2022-11-12T03:24:45;18.80;;;13.97;;
52268;SDS011;38224;50.950;4.100;2022-11-12T03:27:10;20.30;;;14.37;;
52268;SDS011;38224;50.950;4.100;2022-11-12T03:29:35;23.40;;;16.27;;
52268;SDS011;38224;50.950;4.100;2022-11-12T03:32:01;20.13;;;15.13;;
52268;SDS011;38224;50.950;4.100;2022-11-12T03:34:26;20.80;;;14.77;;
52268;SDS011;38224;50.950;4.100;2022-11-12T03:36:51;24.17;;;16.73;;
52268;SDS011;38224;50.950;4.100;2022-11-12T03:39:17;24.38;;;17.88;;
52268;SDS011;38224;50.950;4.100;2022-11-12T03:41:42;28.67;;;20.15;;
52268;SDS011;38224;50.950;4.100;2022-11-12T03:44:07;22.27;;;16.10;;
52268;SDS011;38224;50.950;4.100;2022-11-12T03:46:32;21.50;;;15.27;;
52268;SDS011;38224;50.950;4.100;2022-11-12T03:48:58;22.93;;;16.87;;
52268;SDS011;38224;50.950;4.100;2022-11-12T03:51:24;19.10;;;14.60;;
52268;SDS011;38224;50.950;4.100;2022-11-12T03:53:49;21.38;;;15.85;;
52268;SDS011;38224;50.950;4.100;2022-11-12T03:56:14;22.43;;;15.47;;
52268;SDS011;38224;50.950;4.100;2022-11-12T03:58:39;22.33;;;14.57;;
52268;SDS011;38224;50.950;4.100;2022-11-12T04:01:05;23.60;;;15.80;;
52268;SDS011;38224;50.950;4.100;2022-11-12T04:03:30;21.50;;;13.50;;
52268;SDS011;38224;50.950;4.100;2022-11-12T04:05:55;17.13;;;13.00;;
52268;SDS011;38224;50.950;4.100;2022-11-12T04:08:39;17.90;;;13.02;;
52268;SDS011;38224;50.950;4.100;2022-11-12T04:13:30;20.13;;;13.23;;
52268;SDS011;38224;50.950;4.100;2022-11-12T04:16:06;16.52;;;12.18;;
52268;SDS011;38224;50.950;4.100;2022-11-12T04:18:51;19.13;;;12.73;;
52268;SDS011;38224;50.950;4.100;2022-11-12T04:21:36;23.35;;;13.82;;
52268;SDS011;38224;50.950;4.100;2022-11-12T04:27:08;17.30;;;12.98;;
52268;SDS011;38224;50.950;4.100;2022-11-12T04:29:33;17.95;;;13.23;;
52268;SDS011;38224;50.950;4.100;2022-11-12T04:32:17;23.30;;;15.43;;
52268;SDS011;38224;50.950;4.100;2022-11-12T04:34:43;21.80;;;14.52;;
52268;SDS011;38224;50.950;4.100;2022-11-12T04:37:08;19.70;;;13.43;;
52268;SDS011;38224;50.950;4.100;2022-11-12T04:39:33;19.67;;;13.63;;
52268;SDS011;38224;50.950;4.100;2022-11-12T04:41:58;18.07;;;13.30;;
52268;SDS011;38224;50.950;4.100;2022-11-12T04:44:42;16.70;;;11.30;;
52268;SDS011;38224;50.950;4.100;2022-11-12T04:47:30;16.63;;;11.55;;
52268;SDS011;38224;50.950;4.100;2022-11-12T04:49:56;14.25;;;10.85;;
52268;SDS011;38224;50.950;4.100;2022-11-12T04:52:21;17.58;;;11.90;;
52268;SDS011;38224;50.950;4.100;2022-11-12T04:54:46;14.53;;;11.47;;
52268;SDS011;38224;50.950;4.100;2022-11-12T04:57:12;20.08;;;11.35;;
52268;SDS011;38224;50.950;4.100;2022-11-12T04:59:37;18.10;;;12.53;;
52268;SDS011;38224;50.950;4.100;2022-11-12T05:02:02;18.53;;;12.90;;
52268;SDS011;38224;50.950;4.100;2022-11-12T05:04:27;17.03;;;12.17;;
52268;SDS011;38224;50.950;4.100;2022-11-12T05:06:54;20.92;;;13.55;;
52268;SDS011;38224;50.950;4.100;2022-11-12T05:09:21;20.05;;;12.85;;
52268;SDS011;38224;50.950;4.100;2022-11-12T05:11:46;19.52;;;12.75;;
52268;SDS011;38224;50.950;4.100;2022-11-12T05:14:12;18.08;;;12.18;;
52268;SDS011;38224;50.950;4.100;2022-11-12T05:16:37;16.88;;;12.20;;
52268;SDS011;38224;50.950;4.100;2022-11-12T05:19:03;12.98;;;10.43;;
52268;SDS011;38224;50.950;4.100;2022-11-12T05:21:28;17.95;;;12.98;;
52268;SDS011;38224;50.950;4.100;2022-11-12T05:24:12;18.50;;;13.02;;
52268;SDS011;38224;50.950;4.100;2022-11-12T05:26:37;19.05;;;13.32;;
52268;SDS011;38224;50.950;4.100;2022-11-12T05:29:03;19.63;;;12.73;;
52268;SDS011;38224;50.950;4.100;2022-11-12T05:31:28;19.65;;;13.65;;
52268;SDS011;38224;50.950;4.100;2022-11-12T05:33:53;15.40;;;11.23;;
52268;SDS011;38224;50.950;4.100;2022-11-12T05:36:18;17.00;;;11.63;;
52268;SDS011;38224;50.950;4.100;2022-11-12T05:38:44;17.57;;;12.17;;
52268;SDS011;38224;50.950;4.100;2022-11-12T05:41:09;20.90;;;12.57;;
52268;SDS011;38224;50.950;4.100;2022-11-12T05:43:34;18.02;;;12.80;;
52268;SDS011;38224;50.950;4.100;2022-11-12T05:46:00;18.38;;;13.45;;
52268;SDS011;38224;50.950;4.100;2022-11-12T05:48:25;20.07;;;13.63;;
52268;SDS011;38224;50.950;4.100;2022-11-12T05:50:50;20.33;;;14.87;;
52268;SDS011;38224;50.950;4.100;2022-11-12T05:53:16;21.35;;;14.88;;
52268;SDS011;38224;50.950;4.100;2022-11-12T05:55:41;20.50;;;13.70;;
52268;SDS011;38224;50.950;4.100;2022-11-12T05:58:06;19.13;;;12.47;;
52268;SDS011;38224;50.950;4.100;2022-11-12T06:00:32;18.10;;;13.10;;
52268;SDS011;38224;50.950;4.100;2022-11-12T06:03:03;20.90;;;14.45;;
52268;SDS011;38224;50.950;4.100;2022-11-12T06:05:28;21.30;;;15.93;;
52268;SDS011;38224;50.950;4.100;2022-11-12T06:07:53;22.37;;;14.77;;
52268;SDS011;38224;50.950;4.100;2022-11-12T06:10:19;23.57;;;15.50;;
52268;SDS011;38224;50.950;4.100;2022-11-12T06:12:44;23.57;;;15.47;;
52268;SDS011;38224;50.950;4.100;2022-11-12T06:15:09;21.90;;;14.37;;
52268;SDS011;38224;50.950;4.100;2022-11-12T06:17:34;24.52;;;14.43;;
52268;SDS011;38224;50.950;4.100;2022-11-12T06:20:00;21.63;;;16.20;;
52268;SDS011;38224;50.950;4.100;2022-11-12T06:22:25;26.70;;;16.83;;
52268;SDS011;38224;50.950;4.100;2022-11-12T06:24:50;23.17;;;15.13;;
52268;SDS011;38224;50.950;4.100;2022-11-12T06:27:15;23.77;;;15.13;;
52268;SDS011;38224;50.950;4.100;2022-11-12T06:29:41;23.43;;;16.57;;
52268;SDS011;38224;50.950;4.100;2022-11-12T06:32:06;23.27;;;16.23;;
52268;SDS011;38224;50.950;4.100;2022-11-12T06:34:31;22.53;;;15.00;;
52268;SDS011;38224;50.950;4.100;2022-11-12T06:36:56;23.00;;;13.97;;
52268;SDS011;38224;50.950;4.100;2022-11-12T06:39:21;20.50;;;13.30;;
52268;SDS011;38224;50.950;4.100;2022-11-12T06:41:47;16.57;;;12.17;;
52268;SDS011;38224;50.950;4.100;2022-11-12T06:44:12;18.87;;;13.17;;
52268;SDS011;38224;50.950;4.100;2022-11-12T06:46:37;18.80;;;12.17;;
52268;SDS011;38224;50.950;4.100;2022-11-12T06:49:02;16.37;;;11.17;;
52268;SDS011;38224;50.950;4.100;2022-11-12T06:51:28;18.43;;;11.67;;
52268;SDS011;38224;50.950;4.100;2022-11-12T06:53:53;16.10;;;11.33;;
52268;SDS011;38224;50.950;4.100;2022-11-12T06:56:19;21.83;;;12.15;;
52268;SDS011;38224;50.950;4.100;2022-11-12T06:58:45;24.13;;;14.73;;
52268;SDS011;38224;50.950;4.100;2022-11-12T07:01:14;27.17;;;16.33;;
52268;SDS011;38224;50.950;4.100;2022-11-12T07:03:40;19.63;;;14.45;;
52268;SDS011;38224;50.950;4.100;2022-11-12T07:06:07;22.92;;;14.80;;
52268;SDS011;38224;50.950;4.100;2022-11-12T07:08:32;23.38;;;14.48;;
52268;SDS011;38224;50.950;4.100;2022-11-12T07:10:58;18.45;;;14.57;;
52268;SDS011;38224;50.950;4.100;2022-11-12T07:13:23;21.08;;;14.43;;
52268;SDS011;38224;50.950;4.100;2022-11-12T07:15:48;21.77;;;14.73;;
52268;SDS011;38224;50.950;4.100;2022-11-12T07:18:13;24.53;;;15.50;;
52268;SDS011;38224;50.950;4.100;2022-11-12T07:20:39;21.57;;;15.40;;
52268;SDS011;38224;50.950;4.100;2022-11-12T07:23:04;22.27;;;15.80;;
52268;SDS011;38224;50.950;4.100;2022-11-12T07:25:29;22.88;;;16.50;;
52268;SDS011;38224;50.950;4.100;2022-11-12T07:27:54;23.83;;;16.30;;
52268;SDS011;38224;50.950;4.100;2022-11-12T07:30:20;27.33;;;17.27;;
52268;SDS011;38224;50.950;4.100;2022-11-12T07:32:45;23.80;;;17.30;;
52268;SDS011;38224;50.950;4.100;2022-11-12T07:35:10;26.07;;;18.30;;
52268;SDS011;38224;50.950;4.100;2022-11-12T07:37:36;29.67;;;19.53;;
52268;SDS011;38224;50.950;4.100;2022-11-12T07:40:02;28.38;;;18.50;;
52268;SDS011;38224;50.950;4.100;2022-11-12T07:42:28;27.35;;;17.95;;
52268;SDS011;38224;50.950;4.100;2022-11-12T07:44:53;24.92;;;16.17;;
52268;SDS011;38224;50.950;4.100;2022-11-12T07:47:18;22.13;;;14.87;;
52268;SDS011;38224;50.950;4.100;2022-11-12T07:49:43;21.33;;;14.30;;
52268;SDS011;38224;50.950;4.100;2022-11-12T07:52:08;18.30;;;12.97;;
52268;SDS011;38224;50.950;4.100;2022-11-12T07:54:34;20.60;;;11.95;;
52268;SDS011;38224;50.950;4.100;2022-11-12T07:56:59;16.77;;;11.10;;
52268;SDS011;38224;50.950;4.100;2022-11-12T07:59:24;14.07;;;9.63;;
52268;SDS011;38224;50.950;4.100;2022-11-12T08:01:49;12.20;;;9.13;;
52268;SDS011;38224;50.950;4.100;2022-11-12T08:04:15;12.77;;;8.37;;
52268;SDS011;38224;50.950;4.100;2022-11-12T08:06:40;13.65;;;8.90;;
52268;SDS011;38224;50.950;4.100;2022-11-12T08:09:06;15.52;;;9.55;;
52268;SDS011;38224;50.950;4.100;2022-11-12T08:11:32;16.02;;;9.05;;
52268;SDS011;38224;50.950;4.100;2022-11-12T08:13:57;13.05;;;8.52;;
52268;SDS011;38224;50.950;4.100;2022-11-12T08:16:23;12.90;;;8.60;;
52268;SDS011;38224;50.950;4.100;2022-11-12T08:18:48;12.00;;;8.65;;
52268;SDS011;38224;50.950;4.100;2022-11-12T08:21:14;10.10;;;7.15;;
52268;SDS011;38224;50.950;4.100;2022-11-12T08:23:40;9.75;;;7.80;;
52268;SDS011;38224;50.950;4.100;2022-11-12T08:26:07;9.68;;;7.45;;
52268;SDS011;38224;50.950;4.100;2022-11-12T08:28:33;10.43;;;7.20;;
52268;SDS011;38224;50.950;4.100;2022-11-12T08:31:02;12.25;;;7.63;;
52268;SDS011;38224;50.950;4.100;2022-11-12T08:33:28;12.68;;;8.73;;
52268;SDS011;38224;50.950;4.100;2022-11-12T08:35:55;11.43;;;8.25;;
52268;SDS011;38224;50.950;4.100;2022-11-12T08:38:20;11.65;;;8.63;;
52268;SDS011;38224;50.950;4.100;2022-11-12T08:40:45;11.80;;;8.13;;
52268;SDS011;38224;50.950;4.100;2022-11-12T08:43:10;11.93;;;8.00;;
52268;SDS011;38224;50.950;4.100;2022-11-12T08:45:37;12.25;;;7.88;;
52268;SDS011;38224;50.950;4.100;2022-11-12T08:48:04;12.70;;;8.43;;
52268;SDS011;38224;50.950;4.100;2022-11-12T08:50:30;17.20;;;8.32;;
52268;SDS011;38224;50.950;4.100;2022-11-12T08:52:59;11.65;;;8.32;;
52268;SDS011;38224;50.950;4.100;2022-11-12T08:55:25;11.13;;;8.10;;
52268;SDS011;38224;50.950;4.100;2022-11-12T08:57:51;11.43;;;7.78;;
52268;SDS011;38224;50.950;4.100;2022-11-12T09:00:16;11.97;;;9.03;;
52268;SDS011;38224;50.950;4.100;2022-11-12T09:02:42;13.95;;;9.18;;
52268;SDS011;38224;50.950;4.100;2022-11-12T09:05:07;15.33;;;9.43;;
52268;SDS011;38224;50.950;4.100;2022-11-12T09:07:32;15.60;;;9.93;;
52268;SDS011;38224;50.950;4.100;2022-11-12T09:09:57;15.35;;;9.23;;
52268;SDS011;38224;50.950;4.100;2022-11-12T09:12:23;12.37;;;8.73;;
52268;SDS011;38224;50.950;4.100;2022-11-12T09:14:48;14.27;;;9.57;;
52268;SDS011;38224;50.950;4.100;2022-11-12T09:17:13;12.87;;;8.90;;
52268;SDS011;38224;50.950;4.100;2022-11-12T09:19:38;15.98;;;9.30;;
52268;SDS011;38224;50.950;4.100;2022-11-12T09:22:04;14.73;;;9.18;;
52268;SDS011;38224;50.950;4.100;2022-11-12T09:24:29;12.80;;;8.50;;
52268;SDS011;38224;50.950;4.100;2022-11-12T09:26:54;16.47;;;10.23;;
52268;SDS011;38224;50.950;4.100;2022-11-12T09:29:20;14.43;;;9.10;;
52268;SDS011;38224;50.950;4.100;2022-11-12T09:31:45;14.27;;;9.33;;
52268;SDS011;38224;50.950;4.100;2022-11-12T09:34:10;10.52;;;8.45;;
52268;SDS011;38224;50.950;4.100;2022-11-12T09:36:36;12.50;;;8.70;;
52268;SDS011;38224;50.950;4.100;2022-11-12T09:39:01;14.50;;;8.13;;
52268;SDS011;38224;50.950;4.100;2022-11-12T09:41:36;10.67;;;8.03;;
52268;SDS011;38224;50.950;4.100;2022-11-12T09:44:03;12.52;;;8.13;;
52268;SDS011;38224;50.950;4.100;2022-11-12T09:49:35;10.32;;;7.95;;
52268;SDS011;38224;50.950;4.100;2022-11-12T09:52:03;10.43;;;8.15;;
52268;SDS011;38224;50.950;4.100;2022-11-12T09:54:30;13.02;;;8.38;;
52268;SDS011;38224;50.950;4.100;2022-11-12T09:56:56;17.00;;;8.65;;
52268;SDS011;38224;50.950;4.100;2022-11-12T09:59:21;11.93;;;8.70;;
52268;SDS011;38224;50.950;4.100;2022-11-12T10:01:49;12.65;;;8.25;;
52268;SDS011;38224;50.950;4.100;2022-11-12T10:09:27;8.88;;;7.03;;
52268;SDS011;38224;50.950;4.100;2022-11-12T10:11:58;11.93;;;7.95;;
52268;SDS011;38224;50.950;4.100;2022-11-12T10:17:32;12.10;;;7.55;;
52268;SDS011;38224;50.950;4.100;2022-11-12T10:20:24;11.52;;;7.50;;
52268;SDS011;38224;50.950;4.100;2022-11-12T10:23:10;9.45;;;7.50;;
52268;SDS011;38224;50.950;4.100;2022-11-12T10:25:37;11.52;;;7.30;;
52268;SDS011;38224;50.950;4.100;2022-11-12T10:31:00;8.20;;;6.57;;
52268;SDS011;38224;50.950;4.100;2022-11-12T10:33:30;11.13;;;6.65;;
52268;SDS011;38224;50.950;4.100;2022-11-12T10:35:56;10.50;;;6.65;;
52268;SDS011;38224;50.950;4.100;2022-11-12T10:38:23;9.60;;;6.95;;
52268;SDS011;38224;50.950;4.100;2022-11-12T10:40:49;9.50;;;6.72;;
52268;SDS011;38224;50.950;4.100;2022-11-12T10:45:40;8.73;;;7.17;;
52268;SDS011;38224;50.950;4.100;2022-11-12T10:48:22;9.88;;;7.07;;
52268;SDS011;38224;50.950;4.100;2022-11-12T10:50:48;8.48;;;6.78;;
52268;SDS011;38224;50.950;4.100;2022-11-12T10:53:30;11.75;;;7.18;;
52268;SDS011;38224;50.950;4.100;2022-11-12T10:55:56;10.70;;;7.15;;
52268;SDS011;38224;50.950;4.100;2022-11-12T10:58:22;8.60;;;6.38;;
52268;SDS011;38224;50.950;4.100;2022-11-12T11:00:51;8.53;;;6.07;;
52268;SDS011;38224;50.950;4.100;2022-11-12T11:03:18;12.00;;;6.30;;
52268;SDS011;38224;50.950;4.100;2022-11-12T11:05:58;9.27;;;6.22;;
52268;SDS011;38224;50.950;4.100;2022-11-12T11:08:34;8.20;;;5.95;;
52268;SDS011;38224;50.950;4.100;2022-11-12T11:11:13;10.18;;;5.80;;
52268;SDS011;38224;50.950;4.100;2022-11-12T11:13:38;7.50;;;5.20;;
52268;SDS011;38224;50.950;4.100;2022-11-12T11:16:04;9.53;;;5.53;;
52268;SDS011;38224;50.950;4.100;2022-11-12T11:18:31;8.27;;;5.25;;
52268;SDS011;38224;50.950;4.100;2022-11-12T11:28:57;7.63;;;5.20;;
52268;SDS011;38224;50.950;4.100;2022-11-12T11:34:07;5.22;;;4.72;;
52268;SDS011;38224;50.950;4.100;2022-11-12T11:36:39;6.97;;;4.68;;
52268;SDS011;38224;50.950;4.100;2022-11-12T11:39:17;5.68;;;4.72;;
52268;SDS011;38224;50.950;4.100;2022-11-12T11:41:53;8.40;;;5.30;;
52268;SDS011;38224;50.950;4.100;2022-11-12T11:55:56;6.40;;;5.18;;
52268;SDS011;38224;50.950;4.100;2022-11-12T12:00:57;8.77;;;4.95;;
52268;SDS011;38224;50.950;4.100;2022-11-12T12:03:48;6.55;;;5.00;;
52268;SDS011;38224;50.950;4.100;2022-11-12T12:08:56;8.20;;;5.85;;
52268;SDS011;38224;50.950;4.100;2022-11-12T12:11:29;7.80;;;5.88;;
52268;SDS011;38224;50.950;4.100;2022-11-12T12:13:59;6.63;;;5.50;;
52268;SDS011;38224;50.950;4.100;2022-11-12T12:21:33;6.32;;;4.68;;
52268;SDS011;38224;50.950;4.100;2022-11-12T12:24:03;9.07;;;5.18;;
52268;SDS011;38224;50.950;4.100;2022-11-12T12:26:39;7.97;;;5.13;;
52268;SDS011;38224;50.950;4.100;2022-11-12T12:31:32;5.67;;;4.60;;
52268;SDS011;38224;50.950;4.100;2022-11-12T12:34:01;9.45;;;4.70;;
52268;SDS011;38224;50.950;4.100;2022-11-12T12:36:31;6.07;;;4.97;;
52268;SDS011;38224;50.950;4.100;2022-11-12T12:41:37;10.02;;;4.72;;
52268;SDS011;38224;50.950;4.100;2022-11-12T12:44:04;7.60;;;5.05;;
52268;SDS011;38224;50.950;4.100;2022-11-12T12:46:30;7.55;;;5.13;;
52268;SDS011;38224;50.950;4.100;2022-11-12T12:48:57;8.30;;;4.85;;
52268;SDS011;38224;50.950;4.100;2022-11-12T12:51:23;7.90;;;5.03;;
52268;SDS011;38224;50.950;4.100;2022-11-12T12:53:51;7.30;;;5.80;;
52268;SDS011;38224;50.950;4.100;2022-11-12T12:58:48;7.28;;;5.65;;
52268;SDS011;38224;50.950;4.100;2022-11-12T13:08:45;6.55;;;5.25;;
52268;SDS011;38224;50.950;4.100;2022-11-12T13:11:36;7.28;;;5.50;;
52268;SDS011;38224;50.950;4.100;2022-11-12T13:37:43;6.93;;;4.90;;
52268;SDS011;38224;50.950;4.100;2022-11-12T13:40:22;6.88;;;5.15;;
52268;SDS011;38224;50.950;4.100;2022-11-12T13:42:49;7.60;;;4.47;;
52268;SDS011;38224;50.950;4.100;2022-11-12T13:45:19;6.60;;;4.43;;
52268;SDS011;38224;50.950;4.100;2022-11-12T13:47:44;7.82;;;4.72;;
52268;SDS011;38224;50.950;4.100;2022-11-12T13:50:18;9.88;;;4.88;;
52268;SDS011;38224;50.950;4.100;2022-11-12T13:52:44;9.18;;;5.30;;
52268;SDS011;38224;50.950;4.100;2022-11-12T13:55:17;8.30;;;5.07;;
52268;SDS011;38224;50.950;4.100;2022-11-12T14:02:45;22.38;;;13.73;;
52268;SDS011;38224;50.950;4.100;2022-11-12T14:05:15;9.15;;;5.97;;
52268;SDS011;38224;50.950;4.100;2022-11-12T14:07:47;10.38;;;6.00;;
52268;SDS011;38224;50.950;4.100;2022-11-12T14:12:55;8.13;;;4.95;;
52268;SDS011;38224;50.950;4.100;2022-11-12T14:20:32;7.07;;;4.70;;
52268;SDS011;38224;50.950;4.100;2022-11-12T14:23:08;8.38;;;5.00;;
52268;SDS011;38224;50.950;4.100;2022-11-12T14:25:35;7.40;;;5.47;;
52268;SDS011;38224;50.950;4.100;2022-11-12T14:30:46;8.45;;;5.82;;
52268;SDS011;38224;50.950;4.100;2022-11-12T14:33:17;8.13;;;5.30;;
52268;SDS011;38224;50.950;4.100;2022-11-12T14:35:42;6.35;;;5.40;;
52268;SDS011;38224;50.950;4.100;2022-11-12T14:40:37;6.87;;;5.13;;
52268;SDS011;38224;50.950;4.100;2022-11-12T14:43:12;7.38;;;5.10;;
52268;SDS011;38224;50.950;4.100;2022-11-12T14:45:45;8.77;;;5.25;;
52268;SDS011;38224;50.950;4.100;2022-11-12T14:48:12;6.72;;;5.05;;
52268;SDS011;38224;50.950;4.100;2022-11-12T14:50:38;6.10;;;4.97;;
52268;SDS011;38224;50.950;4.100;2022-11-12T14:53:08;6.72;;;5.13;;
52268;SDS011;38224;50.950;4.100;2022-11-12T14:55:36;7.25;;;5.63;;
52268;SDS011;38224;50.950;4.100;2022-11-12T14:58:02;10.98;;;5.95;;
52268;SDS011;38224;50.950;4.100;2022-11-12T15:02:56;9.57;;;5.78;;
52268;SDS011;38224;50.950;4.100;2022-11-12T15:05:23;13.20;;;6.38;;
52268;SDS011;38224;50.950;4.100;2022-11-12T15:10:35;9.20;;;6.07;;
52268;SDS011;38224;50.950;4.100;2022-11-12T15:13:02;10.98;;;6.95;;
52268;SDS011;38224;50.950;4.100;2022-11-12T15:15:29;15.73;;;6.05;;
52268;SDS011;38224;50.950;4.100;2022-11-12T15:18:02;10.85;;;6.45;;
52268;SDS011;38224;50.950;4.100;2022-11-12T15:22:53;12.07;;;6.80;;
52268;SDS011;38224;50.950;4.100;2022-11-12T15:25:23;9.20;;;6.20;;
52268;SDS011;38224;50.950;4.100;2022-11-12T15:27:49;11.00;;;6.50;;
52268;SDS011;38224;50.950;4.100;2022-11-12T15:30:16;9.13;;;6.45;;
52268;SDS011;38224;50.950;4.100;2022-11-12T15:32:42;13.70;;;7.10;;
52268;SDS011;38224;50.950;4.100;2022-11-12T15:37:45;10.00;;;6.47;;
52268;SDS011;38224;50.950;4.100;2022-11-12T15:40:11;9.43;;;6.18;;
52268;SDS011;38224;50.950;4.100;2022-11-12T15:42:40;12.57;;;6.57;;
52268;SDS011;38224;50.950;4.100;2022-11-12T15:45:12;12.18;;;6.15;;
52268;SDS011;38224;50.950;4.100;2022-11-12T15:47:38;14.88;;;7.45;;
52268;SDS011;38224;50.950;4.100;2022-11-12T15:52:35;12.00;;;6.60;;
52268;SDS011;38224;50.950;4.100;2022-11-12T15:55:00;10.20;;;6.70;;
52268;SDS011;38224;50.950;4.100;2022-11-12T15:57:27;12.30;;;6.40;;
52268;SDS011;38224;50.950;4.100;2022-11-12T15:59:56;13.93;;;6.78;;
52268;SDS011;38224;50.950;4.100;2022-11-12T16:02:22;13.82;;;7.78;;
52268;SDS011;38224;50.950;4.100;2022-11-12T16:04:47;13.70;;;7.50;;
52268;SDS011;38224;50.950;4.100;2022-11-12T16:07:13;12.27;;;7.47;;
52268;SDS011;38224;50.950;4.100;2022-11-12T16:09:38;10.57;;;6.67;;
52268;SDS011;38224;50.950;4.100;2022-11-12T16:12:03;12.82;;;7.15;;
52268;SDS011;38224;50.950;4.100;2022-11-12T16:14:29;12.40;;;8.13;;
52268;SDS011;38224;50.950;4.100;2022-11-12T16:16:54;17.85;;;9.50;;
52268;SDS011;38224;50.950;4.100;2022-11-12T16:19:20;18.00;;;9.73;;
52268;SDS011;38224;50.950;4.100;2022-11-12T16:21:45;65.83;;;35.73;;
52268;SDS011;38224;50.950;4.100;2022-11-12T16:24:10;50.30;;;28.37;;
52268;SDS011;38224;50.950;4.100;2022-11-12T16:26:35;76.30;;;41.17;;
52268;SDS011;38224;50.950;4.100;2022-11-12T16:29:01;56.75;;;29.60;;
52268;SDS011;38224;50.950;4.100;2022-11-12T16:31:27;30.42;;;17.25;;
52268;SDS011;38224;50.950;4.100;2022-11-12T16:33:52;28.45;;;16.88;;
52268;SDS011;38224;50.950;4.100;2022-11-12T16:36:17;34.47;;;19.37;;
52268;SDS011;38224;50.950;4.100;2022-11-12T16:38:43;27.75;;;17.52;;